Mount Dora, New Mexico
Current Conditions -  °F | °C
As of 12:55 AM on Friday 19 Dec 2014 (Local Time) from KCAO Reporting Station
Overcast Overcast  
Wind Chill: 25°   Ceiling: 8000
Heat Index: 31°   Visibility: 9mi
Dew Point: 28°   Wind: 6mph
Humidity: 89%   Direction: 250°WSW
Pressure: 30.09"   Gusts: NA
Location:  36.51°N, 103.49°W
Report Text: KCAO 190755Z AUTO 25005KT 9SM OVC080 M01/M02 A3009 RMK AO2 SLP187 T10061022
Loading
Personal Weather Stations






























Interactive Weather Map New forecast layout! Learn more

10-Day Weather Forecast

Advertisements
Track Severe Weather on mobile